Langston, Alabama
Current Conditions -  °F | °C
As of 6:35 PM on Saturday 25 Oct 2014 (Local Time) from K4A6 Reporting Station
Overcast Overcast  
Wind Chill: 19°   Ceiling: 4600
Heat Index: 19°   Visibility: 10mi
Dew Point: 15°   Wind: 3mph
Humidity: 78%   Direction: 210°SSW
Pressure: 30.04"   Gusts: NA
Location:  34.54°N, 86.07°W
Report Text: K4A6 252335Z AUTO 21003KT 10SM OVC046 19/15 A3004 RMK AO2
Loading
Personal Weather Stations






























Interactive Weather Map
Tropical Storm Tracking
New forecast layout! Learn more

10-Day Weather Forecast

Advertisements
Track Severe Weather on mobile